sensor_id;sensor_type;location;lat;lon;timestamp;P1;durP1;ratioP1;P2;durP2;ratioP2
29984;SDS011;17387;42.690;23.328;2023-02-28T00:01:12;46.47;;;24.73;;
29984;SDS011;17387;42.690;23.328;2023-02-28T00:03:40;45.22;;;24.85;;
29984;SDS011;17387;42.690;23.328;2023-02-28T00:06:08;50.30;;;24.40;;
29984;SDS011;17387;42.690;23.328;2023-02-28T00:08:38;49.13;;;25.25;;
29984;SDS011;17387;42.690;23.328;2023-02-28T00:11:08;43.75;;;22.80;;
29984;SDS011;17387;42.690;23.328;2023-02-28T00:13:54;40.25;;;21.95;;
29984;SDS011;17387;42.690;23.328;2023-02-28T00:16:21;39.75;;;21.05;;
29984;SDS011;17387;42.690;23.328;2023-02-28T00:18:50;46.42;;;23.10;;
29984;SDS011;17387;42.690;23.328;2023-02-28T00:21:25;41.17;;;21.75;;
29984;SDS011;17387;42.690;23.328;2023-02-28T00:23:50;43.90;;;22.83;;
29984;SDS011;17387;42.690;23.328;2023-02-28T00:26:18;47.30;;;24.30;;
29984;SDS011;17387;42.690;23.328;2023-02-28T00:28:43;42.28;;;22.73;;
29984;SDS011;17387;42.690;23.328;2023-02-28T00:31:11;39.80;;;21.88;;
29984;SDS011;17387;42.690;23.328;2023-02-28T00:33:48;45.25;;;22.58;;
29984;SDS011;17387;42.690;23.328;2023-02-28T00:36:15;49.72;;;24.08;;
29984;SDS011;17387;42.690;23.328;2023-02-28T00:38:43;43.25;;;23.55;;
29984;SDS011;17387;42.690;23.328;2023-02-28T00:41:09;49.40;;;24.15;;
29984;SDS011;17387;42.690;23.328;2023-02-28T00:43:35;50.63;;;25.27;;
29984;SDS011;17387;42.690;23.328;2023-02-28T00:46:04;41.40;;;23.38;;
29984;SDS011;17387;42.690;23.328;2023-02-28T00:48:32;46.03;;;23.13;;
29984;SDS011;17387;42.690;23.328;2023-02-28T00:51:10;46.47;;;24.83;;
29984;SDS011;17387;42.690;23.328;2023-02-28T00:53:36;50.83;;;25.67;;
29984;SDS011;17387;42.690;23.328;2023-02-28T00:56:01;51.20;;;25.65;;
29984;SDS011;17387;42.690;23.328;2023-02-28T00:58:27;53.22;;;27.25;;
29984;SDS011;17387;42.690;23.328;2023-02-28T01:00:52;59.42;;;29.98;;
29984;SDS011;17387;42.690;23.328;2023-02-28T01:03:18;59.88;;;29.85;;
29984;SDS011;17387;42.690;23.328;2023-02-28T01:05:44;66.32;;;32.70;;
29984;SDS011;17387;42.690;23.328;2023-02-28T01:08:10;78.18;;;36.92;;
29984;SDS011;17387;42.690;23.328;2023-02-28T01:10:35;70.15;;;33.15;;
29984;SDS011;17387;42.690;23.328;2023-02-28T01:13:01;73.72;;;36.65;;
29984;SDS011;17387;42.690;23.328;2023-02-28T01:15:27;77.05;;;35.63;;
29984;SDS011;17387;42.690;23.328;2023-02-28T01:17:52;67.03;;;34.35;;
29984;SDS011;17387;42.690;23.328;2023-02-28T01:20:18;65.43;;;31.38;;
29984;SDS011;17387;42.690;23.328;2023-02-28T01:22:44;62.88;;;30.58;;
29984;SDS011;17387;42.690;23.328;2023-02-28T01:25:09;68.78;;;33.65;;
29984;SDS011;17387;42.690;23.328;2023-02-28T01:27:34;67.25;;;32.45;;
29984;SDS011;17387;42.690;23.328;2023-02-28T01:30:00;71.70;;;32.55;;
29984;SDS011;17387;42.690;23.328;2023-02-28T01:32:26;66.93;;;31.90;;
29984;SDS011;17387;42.690;23.328;2023-02-28T01:34:51;66.43;;;30.02;;
29984;SDS011;17387;42.690;23.328;2023-02-28T01:37:16;67.03;;;31.33;;
29984;SDS011;17387;42.690;23.328;2023-02-28T01:39:42;72.25;;;34.05;;
29984;SDS011;17387;42.690;23.328;2023-02-28T01:42:10;72.32;;;33.17;;
29984;SDS011;17387;42.690;23.328;2023-02-28T01:44:55;75.82;;;34.33;;
29984;SDS011;17387;42.690;23.328;2023-02-28T01:47:24;69.32;;;31.80;;
29984;SDS011;17387;42.690;23.328;2023-02-28T01:49:51;70.10;;;32.22;;
29984;SDS011;17387;42.690;23.328;2023-02-28T01:52:22;68.75;;;31.90;;
29984;SDS011;17387;42.690;23.328;2023-02-28T01:54:51;74.03;;;32.58;;
29984;SDS011;17387;42.690;23.328;2023-02-28T01:57:19;70.82;;;32.78;;
29984;SDS011;17387;42.690;23.328;2023-02-28T01:59:57;75.88;;;34.92;;
29984;SDS011;17387;42.690;23.328;2023-02-28T02:02:23;86.25;;;36.38;;
29984;SDS011;17387;42.690;23.328;2023-02-28T02:04:53;84.68;;;36.20;;
29984;SDS011;17387;42.690;23.328;2023-02-28T02:07:19;89.68;;;38.72;;
29984;SDS011;17387;42.690;23.328;2023-02-28T02:09:45;87.68;;;38.15;;
29984;SDS011;17387;42.690;23.328;2023-02-28T02:15:07;81.63;;;36.63;;
29984;SDS011;17387;42.690;23.328;2023-02-28T02:17:41;94.40;;;39.58;;
29984;SDS011;17387;42.690;23.328;2023-02-28T02:27:56;90.35;;;38.70;;
29984;SDS011;17387;42.690;23.328;2023-02-28T02:35:25;86.88;;;36.80;;
29984;SDS011;17387;42.690;23.328;2023-02-28T02:37:57;82.78;;;34.75;;
29984;SDS011;17387;42.690;23.328;2023-02-28T02:40:31;76.25;;;33.33;;
29984;SDS011;17387;42.690;23.328;2023-02-28T02:43:07;86.65;;;36.17;;
29984;SDS011;17387;42.690;23.328;2023-02-28T02:45:52;78.53;;;36.05;;
29984;SDS011;17387;42.690;23.328;2023-02-28T02:48:19;82.68;;;37.03;;
29984;SDS011;17387;42.690;23.328;2023-02-28T02:50:54;85.57;;;35.35;;
29984;SDS011;17387;42.690;23.328;2023-02-28T02:53:23;82.05;;;34.53;;
29984;SDS011;17387;42.690;23.328;2023-02-28T02:55:50;84.68;;;34.90;;
29984;SDS011;17387;42.690;23.328;2023-02-28T02:58:19;94.97;;;36.17;;
29984;SDS011;17387;42.690;23.328;2023-02-28T03:00:47;89.25;;;36.13;;
29984;SDS011;17387;42.690;23.328;2023-02-28T03:03:13;82.90;;;34.40;;
29984;SDS011;17387;42.690;23.328;2023-02-28T03:05:46;73.65;;;32.50;;
29984;SDS011;17387;42.690;23.328;2023-02-28T03:08:12;87.50;;;35.38;;
29984;SDS011;17387;42.690;23.328;2023-02-28T03:10:44;85.03;;;35.67;;
29984;SDS011;17387;42.690;23.328;2023-02-28T03:15:57;74.85;;;32.65;;
29984;SDS011;17387;42.690;23.328;2023-02-28T03:21:19;71.95;;;32.17;;
29984;SDS011;17387;42.690;23.328;2023-02-28T03:23:59;71.82;;;33.17;;
29984;SDS011;17387;42.690;23.328;2023-02-28T03:26:28;71.07;;;32.63;;
29984;SDS011;17387;42.690;23.328;2023-02-28T03:31:26;69.05;;;31.70;;
29984;SDS011;17387;42.690;23.328;2023-02-28T03:34:16;72.73;;;32.10;;
29984;SDS011;17387;42.690;23.328;2023-02-28T03:36:39;73.20;;;33.78;;
29984;SDS011;17387;42.690;23.328;2023-02-28T03:39:14;75.15;;;33.47;;
29984;SDS011;17387;42.690;23.328;2023-02-28T03:41:46;76.75;;;33.58;;
29984;SDS011;17387;42.690;23.328;2023-02-28T03:44:16;83.65;;;35.97;;
29984;SDS011;17387;42.690;23.328;2023-02-28T03:46:48;76.28;;;34.85;;
29984;SDS011;17387;42.690;23.328;2023-02-28T03:49:18;79.57;;;34.20;;
29984;SDS011;17387;42.690;23.328;2023-02-28T03:51:45;80.22;;;34.00;;
29984;SDS011;17387;42.690;23.328;2023-02-28T03:54:12;88.55;;;35.10;;
29984;SDS011;17387;42.690;23.328;2023-02-28T03:56:43;89.20;;;35.90;;
29984;SDS011;17387;42.690;23.328;2023-02-28T03:59:18;80.65;;;34.78;;
29984;SDS011;17387;42.690;23.328;2023-02-28T04:01:46;82.03;;;34.70;;
29984;SDS011;17387;42.690;23.328;2023-02-28T04:04:12;84.47;;;35.47;;
29984;SDS011;17387;42.690;23.328;2023-02-28T04:06:38;81.65;;;35.90;;
29984;SDS011;17387;42.690;23.328;2023-02-28T04:09:04;82.88;;;35.03;;
29984;SDS011;17387;42.690;23.328;2023-02-28T04:11:36;87.47;;;35.85;;
29984;SDS011;17387;42.690;23.328;2023-02-28T04:14:02;96.03;;;37.53;;
29984;SDS011;17387;42.690;23.328;2023-02-28T04:16:28;77.75;;;34.78;;
29984;SDS011;17387;42.690;23.328;2023-02-28T04:18:54;90.60;;;36.60;;
29984;SDS011;17387;42.690;23.328;2023-02-28T04:21:29;80.97;;;35.47;;
29984;SDS011;17387;42.690;23.328;2023-02-28T04:23:54;92.78;;;35.83;;
29984;SDS011;17387;42.690;23.328;2023-02-28T04:26:19;91.32;;;36.20;;
29984;SDS011;17387;42.690;23.328;2023-02-28T04:28:45;84.03;;;33.75;;
29984;SDS011;17387;42.690;23.328;2023-02-28T04:31:10;90.18;;;36.22;;
29984;SDS011;17387;42.690;23.328;2023-02-28T04:33:35;92.20;;;36.88;;
29984;SDS011;17387;42.690;23.328;2023-02-28T04:36:05;89.13;;;35.10;;
29984;SDS011;17387;42.690;23.328;2023-02-28T04:38:34;90.97;;;34.67;;
29984;SDS011;17387;42.690;23.328;2023-02-28T04:41:21;91.75;;;34.63;;
29984;SDS011;17387;42.690;23.328;2023-02-28T04:43:56;94.65;;;36.58;;
29984;SDS011;17387;42.690;23.328;2023-02-28T04:46:22;95.55;;;35.80;;
29984;SDS011;17387;42.690;23.328;2023-02-28T04:48:53;100.63;;;37.35;;
29984;SDS011;17387;42.690;23.328;2023-02-28T04:51:27;93.10;;;35.67;;
29984;SDS011;17387;42.690;23.328;2023-02-28T05:02:42;111.45;;;41.55;;
29984;SDS011;17387;42.690;23.328;2023-02-28T05:05:08;122.97;;;42.42;;
29984;SDS011;17387;42.690;23.328;2023-02-28T05:07:41;112.70;;;42.13;;
29984;SDS011;17387;42.690;23.328;2023-02-28T05:10:10;129.70;;;44.80;;
29984;SDS011;17387;42.690;23.328;2023-02-28T05:16:34;108.03;;;41.13;;
29984;SDS011;17387;42.690;23.328;2023-02-28T05:19:00;95.57;;;36.80;;
29984;SDS011;17387;42.690;23.328;2023-02-28T05:21:34;102.25;;;37.97;;
29984;SDS011;17387;42.690;23.328;2023-02-28T05:24:01;93.95;;;37.58;;
29984;SDS011;17387;42.690;23.328;2023-02-28T05:26:27;92.47;;;37.72;;
29984;SDS011;17387;42.690;23.328;2023-02-28T05:29:00;105.18;;;41.65;;
29984;SDS011;17387;42.690;23.328;2023-02-28T05:31:25;101.50;;;40.13;;
29984;SDS011;17387;42.690;23.328;2023-02-28T05:33:51;101.22;;;40.47;;
29984;SDS011;17387;42.690;23.328;2023-02-28T05:36:16;94.38;;;37.45;;
29984;SDS011;17387;42.690;23.328;2023-02-28T05:38:41;102.97;;;42.38;;
29984;SDS011;17387;42.690;23.328;2023-02-28T05:41:07;104.25;;;41.58;;
29984;SDS011;17387;42.690;23.328;2023-02-28T05:43:33;99.82;;;40.08;;
29984;SDS011;17387;42.690;23.328;2023-02-28T05:45:59;106.88;;;40.78;;
29984;SDS011;17387;42.690;23.328;2023-02-28T05:48:26;94.70;;;38.65;;
29984;SDS011;17387;42.690;23.328;2023-02-28T05:50:51;80.30;;;36.20;;
29984;SDS011;17387;42.690;23.328;2023-02-28T05:53:17;84.07;;;37.70;;
29984;SDS011;17387;42.690;23.328;2023-02-28T05:55:42;78.72;;;36.50;;
29984;SDS011;17387;42.690;23.328;2023-02-28T05:58:07;75.93;;;35.22;;
29984;SDS011;17387;42.690;23.328;2023-02-28T06:00:33;77.82;;;34.92;;
29984;SDS011;17387;42.690;23.328;2023-02-28T06:02:58;77.72;;;34.22;;
29984;SDS011;17387;42.690;23.328;2023-02-28T06:05:26;78.65;;;35.53;;
29984;SDS011;17387;42.690;23.328;2023-02-28T06:07:52;75.00;;;33.28;;
29984;SDS011;17387;42.690;23.328;2023-02-28T06:10:18;79.82;;;35.20;;
29984;SDS011;17387;42.690;23.328;2023-02-28T06:12:44;86.53;;;37.00;;
29984;SDS011;17387;42.690;23.328;2023-02-28T06:15:11;90.93;;;37.97;;
29984;SDS011;17387;42.690;23.328;2023-02-28T06:17:36;92.43;;;37.53;;
29984;SDS011;17387;42.690;23.328;2023-02-28T06:20:02;86.28;;;37.95;;
29984;SDS011;17387;42.690;23.328;2023-02-28T06:22:27;92.40;;;40.13;;
29984;SDS011;17387;42.690;23.328;2023-02-28T06:24:52;91.28;;;39.00;;
29984;SDS011;17387;42.690;23.328;2023-02-28T06:27:19;90.85;;;38.97;;
29984;SDS011;17387;42.690;23.328;2023-02-28T06:29:45;84.35;;;37.90;;
29984;SDS011;17387;42.690;23.328;2023-02-28T06:32:10;88.28;;;38.05;;
29984;SDS011;17387;42.690;23.328;2023-02-28T06:34:36;77.63;;;35.40;;
29984;SDS011;17387;42.690;23.328;2023-02-28T06:37:01;93.32;;;41.85;;
29984;SDS011;17387;42.690;23.328;2023-02-28T06:39:27;80.82;;;39.28;;
29984;SDS011;17387;42.690;23.328;2023-02-28T06:41:52;77.60;;;34.85;;
29984;SDS011;17387;42.690;23.328;2023-02-28T06:44:18;83.50;;;39.20;;
29984;SDS011;17387;42.690;23.328;2023-02-28T06:46:43;61.03;;;31.98;;
29984;SDS011;17387;42.690;23.328;2023-02-28T06:49:09;63.80;;;31.45;;
29984;SDS011;17387;42.690;23.328;2023-02-28T06:51:36;59.17;;;30.60;;
29984;SDS011;17387;42.690;23.328;2023-02-28T06:54:02;58.65;;;31.05;;
29984;SDS011;17387;42.690;23.328;2023-02-28T06:56:27;64.38;;;31.20;;
29984;SDS011;17387;42.690;23.328;2023-02-28T06:58:52;61.00;;;32.20;;
29984;SDS011;17387;42.690;23.328;2023-02-28T07:01:18;66.53;;;32.88;;
29984;SDS011;17387;42.690;23.328;2023-02-28T07:03:44;65.22;;;33.63;;
29984;SDS011;17387;42.690;23.328;2023-02-28T07:06:09;69.55;;;33.50;;
29984;SDS011;17387;42.690;23.328;2023-02-28T07:08:35;66.13;;;31.92;;
29984;SDS011;17387;42.690;23.328;2023-02-28T07:11:01;67.53;;;32.78;;
29984;SDS011;17387;42.690;23.328;2023-02-28T07:13:26;68.82;;;33.92;;
29984;SDS011;17387;42.690;23.328;2023-02-28T07:15:55;70.75;;;34.80;;
29984;SDS011;17387;42.690;23.328;2023-02-28T07:18:21;68.35;;;33.63;;
29984;SDS011;17387;42.690;23.328;2023-02-28T07:20:46;70.55;;;33.88;;
29984;SDS011;17387;42.690;23.328;2023-02-28T07:23:12;63.10;;;31.52;;
29984;SDS011;17387;42.690;23.328;2023-02-28T07:25:37;70.65;;;34.83;;
29984;SDS011;17387;42.690;23.328;2023-02-28T07:28:02;69.15;;;33.83;;
29984;SDS011;17387;42.690;23.328;2023-02-28T07:30:28;76.00;;;36.95;;
29984;SDS011;17387;42.690;23.328;2023-02-28T07:32:53;72.45;;;34.33;;
29984;SDS011;17387;42.690;23.328;2023-02-28T07:35:21;70.78;;;34.13;;
29984;SDS011;17387;42.690;23.328;2023-02-28T07:37:46;67.25;;;33.03;;
29984;SDS011;17387;42.690;23.328;2023-02-28T07:40:12;71.90;;;34.38;;
29984;SDS011;17387;42.690;23.328;2023-02-28T07:42:38;73.25;;;32.75;;
29984;SDS011;17387;42.690;23.328;2023-02-28T07:45:04;69.90;;;33.47;;
29984;SDS011;17387;42.690;23.328;2023-02-28T07:47:29;70.97;;;34.22;;
29984;SDS011;17387;42.690;23.328;2023-02-28T07:49:55;61.15;;;31.50;;
29984;SDS011;17387;42.690;23.328;2023-02-28T07:52:20;70.47;;;34.72;;
29984;SDS011;17387;42.690;23.328;2023-02-28T07:54:45;75.10;;;36.53;;
29984;SDS011;17387;42.690;23.328;2023-02-28T07:57:11;72.05;;;34.65;;
29984;SDS011;17387;42.690;23.328;2023-02-28T07:59:36;74.15;;;35.05;;
29984;SDS011;17387;42.690;23.328;2023-02-28T08:02:01;64.72;;;33.30;;
29984;SDS011;17387;42.690;23.328;2023-02-28T08:04:47;69.60;;;35.33;;
29984;SDS011;17387;42.690;23.328;2023-02-28T08:07:13;73.18;;;36.78;;
29984;SDS011;17387;42.690;23.328;2023-02-28T08:09:39;74.57;;;38.90;;
29984;SDS011;17387;42.690;23.328;2023-02-28T08:12:04;63.67;;;33.40;;
29984;SDS011;17387;42.690;23.328;2023-02-28T08:14:30;61.20;;;32.80;;
29984;SDS011;17387;42.690;23.328;2023-02-28T08:16:55;60.10;;;32.35;;
29984;SDS011;17387;42.690;23.328;2023-02-28T08:19:23;62.40;;;31.70;;
29984;SDS011;17387;42.690;23.328;2023-02-28T08:21:49;53.78;;;29.77;;
29984;SDS011;17387;42.690;23.328;2023-02-28T08:24:14;55.65;;;30.15;;
29984;SDS011;17387;42.690;23.328;2023-02-28T08:26:39;61.22;;;31.48;;
29984;SDS011;17387;42.690;23.328;2023-02-28T08:29:04;60.85;;;30.48;;
29984;SDS011;17387;42.690;23.328;2023-02-28T08:31:30;58.50;;;30.27;;
29984;SDS011;17387;42.690;23.328;2023-02-28T08:33:55;52.15;;;29.50;;
29984;SDS011;17387;42.690;23.328;2023-02-28T08:36:23;62.50;;;31.45;;
29984;SDS011;17387;42.690;23.328;2023-02-28T08:38:49;54.88;;;29.10;;
29984;SDS011;17387;42.690;23.328;2023-02-28T08:41:15;54.72;;;31.73;;
29984;SDS011;17387;42.690;23.328;2023-02-28T08:44:20;58.72;;;31.90;;
29984;SDS011;17387;42.690;23.328;2023-02-28T08:46:45;67.13;;;36.10;;
29984;SDS011;17387;42.690;23.328;2023-02-28T08:49:13;61.17;;;31.52;;
29984;SDS011;17387;42.690;23.328;2023-02-28T08:51:38;58.67;;;29.33;;
29984;SDS011;17387;42.690;23.328;2023-02-28T08:54:04;54.65;;;29.38;;
29984;SDS011;17387;42.690;23.328;2023-02-28T08:56:29;55.85;;;28.85;;
29984;SDS011;17387;42.690;23.328;2023-02-28T08:58:57;54.55;;;29.80;;
29984;SDS011;17387;42.690;23.328;2023-02-28T09:01:26;55.20;;;28.05;;
29984;SDS011;17387;42.690;23.328;2023-02-28T09:03:52;46.92;;;23.77;;
29984;SDS011;17387;42.690;23.328;2023-02-28T09:06:22;49.40;;;23.42;;
29984;SDS011;17387;42.690;23.328;2023-02-28T09:08:50;57.00;;;23.02;;
29984;SDS011;17387;42.690;23.328;2023-02-28T09:11:21;59.40;;;24.80;;
29984;SDS011;17387;42.690;23.328;2023-02-28T09:13:46;48.90;;;22.45;;
29984;SDS011;17387;42.690;23.328;2023-02-28T09:16:13;51.03;;;23.05;;
29984;SDS011;17387;42.690;23.328;2023-02-28T09:18:41;44.83;;;20.85;;
29984;SDS011;17387;42.690;23.328;2023-02-28T09:21:10;43.17;;;18.95;;
29984;SDS011;17387;42.690;23.328;2023-02-28T09:23:38;43.67;;;19.63;;
29984;SDS011;17387;42.690;23.328;2023-02-28T09:26:04;42.40;;;18.60;;
29984;SDS011;17387;42.690;23.328;2023-02-28T09:28:29;49.72;;;21.38;;
29984;SDS011;17387;42.690;23.328;2023-02-28T09:30:54;41.78;;;19.65;;
29984;SDS011;17387;42.690;23.328;2023-02-28T09:33:22;40.88;;;19.42;;
29984;SDS011;17387;42.690;23.328;2023-02-28T09:35:48;42.53;;;19.98;;
29984;SDS011;17387;42.690;23.328;2023-02-28T09:38:13;40.85;;;18.48;;
29984;SDS011;17387;42.690;23.328;2023-02-28T09:41:01;45.05;;;19.75;;
29984;SDS011;17387;42.690;23.328;2023-02-28T09:43:26;38.60;;;18.90;;
29984;SDS011;17387;42.690;23.328;2023-02-28T09:45:54;44.45;;;20.02;;
29984;SDS011;17387;42.690;23.328;2023-02-28T09:48:25;38.17;;;18.80;;
29984;SDS011;17387;42.690;23.328;2023-02-28T09:50:55;43.75;;;20.15;;
29984;SDS011;17387;42.690;23.328;2023-02-28T09:53:28;39.97;;;18.73;;
29984;SDS011;17387;42.690;23.328;2023-02-28T09:55:59;41.35;;;19.70;;
29984;SDS011;17387;42.690;23.328;2023-02-28T09:58:28;40.50;;;19.08;;
29984;SDS011;17387;42.690;23.328;2023-02-28T10:01:00;38.33;;;18.33;;
29984;SDS011;17387;42.690;23.328;2023-02-28T10:03:29;35.65;;;17.88;;
29984;SDS011;17387;42.690;23.328;2023-02-28T10:06:02;33.90;;;16.35;;
29984;SDS011;17387;42.690;23.328;2023-02-28T10:08:32;38.10;;;17.13;;
29984;SDS011;17387;42.690;23.328;2023-02-28T10:11:00;38.58;;;15.98;;
29984;SDS011;17387;42.690;23.328;2023-02-28T10:16:32;58.33;;;24.33;;
29984;SDS011;17387;42.690;23.328;2023-02-28T10:19:02;37.20;;;15.80;;
29984;SDS011;17387;42.690;23.328;2023-02-28T10:21:33;35.92;;;16.10;;
29984;SDS011;17387;42.690;23.328;2023-02-28T10:24:04;37.88;;;15.93;;
29984;SDS011;17387;42.690;23.328;2023-02-28T10:26:31;39.50;;;19.20;;
29984;SDS011;17387;42.690;23.328;2023-02-28T10:28:56;32.97;;;16.13;;
29984;SDS011;17387;42.690;23.328;2023-02-28T10:31:21;39.05;;;18.35;;
29984;SDS011;17387;42.690;23.328;2023-02-28T10:33:47;35.75;;;17.08;;
29984;SDS011;17387;42.690;23.328;2023-02-28T10:36:16;44.72;;;17.73;;
29984;SDS011;17387;42.690;23.328;2023-02-28T10:38:43;34.20;;;14.43;;
29984;SDS011;17387;42.690;23.328;2023-02-28T10:43:33;33.25;;;15.35;;
29984;SDS011;17387;42.690;23.328;2023-02-28T10:46:01;36.88;;;14.90;;
29984;SDS011;17387;42.690;23.328;2023-02-28T10:48:32;35.08;;;15.32;;
29984;SDS011;17387;42.690;23.328;2023-02-28T10:50:58;34.47;;;16.13;;
29984;SDS011;17387;42.690;23.328;2023-02-28T10:56:23;34.10;;;16.02;;
29984;SDS011;17387;42.690;23.328;2023-02-28T11:06:42;36.28;;;16.52;;
29984;SDS011;17387;42.690;23.328;2023-02-28T11:09:23;33.83;;;16.42;;
29984;SDS011;17387;42.690;23.328;2023-02-28T11:11:49;38.22;;;15.68;;
29984;SDS011;17387;42.690;23.328;2023-02-28T11:14:19;39.70;;;16.90;;
29984;SDS011;17387;42.690;23.328;2023-02-28T11:16:45;40.05;;;18.30;;
29984;SDS011;17387;42.690;23.328;2023-02-28T11:19:16;30.92;;;15.70;;
29984;SDS011;17387;42.690;23.328;2023-02-28T11:21:45;34.88;;;15.63;;
29984;SDS011;17387;42.690;23.328;2023-02-28T11:27:23;32.08;;;14.45;;
29984;SDS011;17387;42.690;23.328;2023-02-28T11:29:49;34.65;;;16.42;;
29984;SDS011;17387;42.690;23.328;2023-02-28T11:32:21;38.63;;;15.63;;
29984;SDS011;17387;42.690;23.328;2023-02-28T11:34:59;33.05;;;15.25;;
29984;SDS011;17387;42.690;23.328;2023-02-28T11:37:25;34.47;;;15.65;;
29984;SDS011;17387;42.690;23.328;2023-02-28T11:39:51;37.63;;;14.70;;
29984;SDS011;17387;42.690;23.328;2023-02-28T12:02:52;47.58;;;18.38;;
29984;SDS011;17387;42.690;23.328;2023-02-28T12:10:57;39.33;;;17.83;;
29984;SDS011;17387;42.690;23.328;2023-02-28T12:28:35;38.20;;;16.80;;
29984;SDS011;17387;42.690;23.328;2023-02-28T12:31:11;39.17;;;18.95;;
29984;SDS011;17387;42.690;23.328;2023-02-28T12:33:51;39.90;;;16.30;;
29984;SDS011;17387;42.690;23.328;2023-02-28T12:36:17;39.45;;;17.58;;
29984;SDS011;17387;42.690;23.328;2023-02-28T12:41:12;38.00;;;17.73;;
29984;SDS011;17387;42.690;23.328;2023-02-28T12:43:43;32.15;;;15.45;;
29984;SDS011;17387;42.690;23.328;2023-02-28T12:46:42;29.73;;;13.73;;
29984;SDS011;17387;42.690;23.328;2023-02-28T12:49:02;33.95;;;15.80;;
29984;SDS011;17387;42.690;23.328;2023-02-28T12:51:29;36.63;;;16.42;;
29984;SDS011;17387;42.690;23.328;2023-02-28T12:54:07;40.65;;;20.15;;
29984;SDS011;17387;42.690;23.328;2023-02-28T12:59:22;38.85;;;18.30;;
29984;SDS011;17387;42.690;23.328;2023-02-28T13:04:52;37.28;;;15.68;;
29984;SDS011;17387;42.690;23.328;2023-02-28T13:09:52;33.00;;;15.00;;
29984;SDS011;17387;42.690;23.328;2023-02-28T13:12:18;40.50;;;18.23;;
29984;SDS011;17387;42.690;23.328;2023-02-28T13:14:45;42.50;;;17.65;;
29984;SDS011;17387;42.690;23.328;2023-02-28T13:17:11;47.95;;;19.83;;
29984;SDS011;17387;42.690;23.328;2023-02-28T13:19:38;36.47;;;14.88;;
29984;SDS011;17387;42.690;23.328;2023-02-28T13:22:04;39.92;;;15.15;;
29984;SDS011;17387;42.690;23.328;2023-02-28T13:29:31;34.80;;;14.85;;
29984;SDS011;17387;42.690;23.328;2023-02-28T13:39:49;34.70;;;15.77;;
29984;SDS011;17387;42.690;23.328;2023-02-28T13:42:31;37.83;;;17.58;;
29984;SDS011;17387;42.690;23.328;2023-02-28T13:47:29;32.92;;;14.05;;
29984;SDS011;17387;42.690;23.328;2023-02-28T13:50:14;37.40;;;15.52;;
29984;SDS011;17387;42.690;23.328;2023-02-28T13:55:37;40.28;;;18.45;;
29984;SDS011;17387;42.690;23.328;2023-02-28T14:06:16;44.15;;;21.15;;
29984;SDS011;17387;42.690;23.328;2023-02-28T14:09:03;33.97;;;14.23;;
29984;SDS011;17387;42.690;23.328;2023-02-28T14:11:37;31.20;;;13.25;;
29984;SDS011;17387;42.690;23.328;2023-02-28T14:14:03;28.08;;;13.15;;
29984;SDS011;17387;42.690;23.328;2023-02-28T14:16:36;33.47;;;13.13;;
29984;SDS011;17387;42.690;23.328;2023-02-28T14:19:14;30.85;;;14.02;;
29984;SDS011;17387;42.690;23.328;2023-02-28T14:32:29;23.48;;;11.55;;
29984;SDS011;17387;42.690;23.328;2023-02-28T14:37:32;31.60;;;13.82;;
29984;SDS011;17387;42.690;23.328;2023-02-28T14:39:59;29.85;;;13.40;;
29984;SDS011;17387;42.690;23.328;2023-02-28T14:42:34;35.15;;;14.55;;
29984;SDS011;17387;42.690;23.328;2023-02-28T14:45:00;36.53;;;13.50;;
29984;SDS011;17387;42.690;23.328;2023-02-28T14:47:27;33.25;;;14.93;;
29984;SDS011;17387;42.690;23.328;2023-02-28T14:49:53;28.42;;;13.23;;
29984;SDS011;17387;42.690;23.328;2023-02-28T14:52:20;32.45;;;13.00;;
29984;SDS011;17387;42.690;23.328;2023-02-28T14:54:46;33.15;;;14.90;;
29984;SDS011;17387;42.690;23.328;2023-02-28T14:57:26;34.20;;;14.88;;
29984;SDS011;17387;42.690;23.328;2023-02-28T15:00:02;28.77;;;12.10;;
29984;SDS011;17387;42.690;23.328;2023-02-28T15:02:30;36.03;;;15.05;;
29984;SDS011;17387;42.690;23.328;2023-02-28T15:05:00;29.92;;;14.68;;
29984;SDS011;17387;42.690;23.328;2023-02-28T15:07:31;32.80;;;13.05;;
29984;SDS011;17387;42.690;23.328;2023-02-28T15:10:06;30.40;;;11.98;;
29984;SDS011;17387;42.690;23.328;2023-02-28T15:12:31;29.80;;;12.07;;
29984;SDS011;17387;42.690;23.328;2023-02-28T15:15:00;32.53;;;12.45;;
29984;SDS011;17387;42.690;23.328;2023-02-28T15:17:25;40.47;;;14.05;;
29984;SDS011;17387;42.690;23.328;2023-02-28T15:19:51;30.70;;;15.43;;
29984;SDS011;17387;42.690;23.328;2023-02-28T15:22:18;32.90;;;13.02;;
29984;SDS011;17387;42.690;23.328;2023-02-28T15:24:48;37.45;;;14.70;;
29984;SDS011;17387;42.690;23.328;2023-02-28T15:27:16;37.92;;;14.60;;
29984;SDS011;17387;42.690;23.328;2023-02-28T15:29:46;36.78;;;14.10;;
29984;SDS011;17387;42.690;23.328;2023-02-28T15:32:33;30.85;;;12.07;;
29984;SDS011;17387;42.690;23.328;2023-02-28T15:35:16;28.30;;;12.88;;
29984;SDS011;17387;42.690;23.328;2023-02-28T15:37:47;31.65;;;13.40;;
29984;SDS011;17387;42.690;23.328;2023-02-28T15:42:38;29.23;;;14.03;;
29984;SDS011;17387;42.690;23.328;2023-02-28T15:45:03;32.42;;;14.48;;
29984;SDS011;17387;42.690;23.328;2023-02-28T15:47:29;28.98;;;14.30;;
29984;SDS011;17387;42.690;23.328;2023-02-28T15:49:56;28.35;;;12.98;;
29984;SDS011;17387;42.690;23.328;2023-02-28T15:52:28;24.38;;;11.80;;
29984;SDS011;17387;42.690;23.328;2023-02-28T15:54:56;26.67;;;11.02;;
29984;SDS011;17387;42.690;23.328;2023-02-28T15:57:24;24.38;;;11.15;;
29984;SDS011;17387;42.690;23.328;2023-02-28T15:59:54;21.95;;;12.68;;
29984;SDS011;17387;42.690;23.328;2023-02-28T16:02:21;25.23;;;12.90;;
29984;SDS011;17387;42.690;23.328;2023-02-28T16:07:31;24.25;;;12.50;;
29984;SDS011;17387;42.690;23.328;2023-02-28T16:09:57;24.30;;;13.38;;
29984;SDS011;17387;42.690;23.328;2023-02-28T16:12:24;45.13;;;25.90;;
29984;SDS011;17387;42.690;23.328;2023-02-28T16:14:51;55.33;;;28.80;;
29984;SDS011;17387;42.690;23.328;2023-02-28T16:17:19;64.43;;;29.60;;
29984;SDS011;17387;42.690;23.328;2023-02-28T16:19:46;61.20;;;33.10;;
29984;SDS011;17387;42.690;23.328;2023-02-28T16:22:11;57.40;;;31.80;;
29984;SDS011;17387;42.690;23.328;2023-02-28T16:24:36;42.17;;;21.83;;
29984;SDS011;17387;42.690;23.328;2023-02-28T16:27:03;30.55;;;17.02;;
29984;SDS011;17387;42.690;23.328;2023-02-28T16:29:32;29.88;;;16.10;;
29984;SDS011;17387;42.690;23.328;2023-02-28T16:31:58;29.50;;;14.02;;
29984;SDS011;17387;42.690;23.328;2023-02-28T16:34:24;29.55;;;15.45;;
29984;SDS011;17387;42.690;23.328;2023-02-28T16:36:50;29.25;;;14.80;;
29984;SDS011;17387;42.690;23.328;2023-02-28T16:39:15;26.50;;;14.02;;
29984;SDS011;17387;42.690;23.328;2023-02-28T16:41:44;30.08;;;12.00;;
29984;SDS011;17387;42.690;23.328;2023-02-28T16:44:12;24.95;;;11.20;;
29984;SDS011;17387;42.690;23.328;2023-02-28T16:46:38;25.70;;;12.88;;
29984;SDS011;17387;42.690;23.328;2023-02-28T16:49:03;19.92;;;10.10;;